サンパウロ/グアルーリョス の空港の天気 - METARとTAF

グアルーリョス国際空港 (サンパウロ) ( SBGR / GRU ) - ブラジル サンパウロ州サンパウロ市
飛行場実況気象(Metar)
観測時間10/17 14:00 BRST (10/17 16:00 UTC)
風向・風速北東 4m/s
視程10km以上
天気現象
少しの雲 雲底高度 910m
気温26℃
湿度61%
気圧1022hPa
METARSBGR 171600Z 05008KT 9999 FEW030 26/18 Q1022
過去の天気等 Google飛行場航空写真 Wunderground天気予報

過去48時間のMETAR

飛行場予報(TAF)
発表時間: 10/17 07:13 BRST (10/17 09:13 UTC)
予報対象時間: 17日10時 BRST ~ 18日16時 BRST
風向・風速東 4m/s
視程10km以上
全天の8割程度の雲 雲底高度 370m
17日11時 BRST ~ 17日13時 BRST に徐々に
視程10km以上
なし
17日14時 BRST ~ 17日16時 BRST に徐々に
風向・風速南南東 5m/s
17日19時 BRST ~ 17日21時 BRST に徐々に
全天の8割程度の雲 雲底高度 340m
17日23時 BRST ~ 18日1時 BRST に徐々に
風向・風速東 3m/s
視程10km以上
なし
18日5時 BRST から 確率 30% で
視程4,000m
天気現象もや
全天の8割程度の雲 雲底高度 270m
18日10時 BRST ~ 18日12時 BRST に徐々に
風向・風速北東 3m/s
18日13時 BRST ~ 18日16時 BRST に一時的に
風向・風速北 5m/s
全天の4割程度の雲 雲底高度 1,370m
TAF SBGR 170913Z 1712/1818 08007KT 9999 BKN012 TN17/1809Z TX31/1817Z
BECMG 1713/1715 CAVOK
BECMG 1716/1718 15010KT
BECMG 1721/1723 BKN011
BECMG 1801/1803 08005KT CAVOK
PROB30 1807/1810 4000 BR BKN009
BECMG 1812/1814 05005KT
TEMPO 1815/1818 35010KT SCT045 RMK PGN